METAR AND TAF INFORMATION
METAR FOR UKLI
ADDS - METARS form results

(1247 UTC 20 February 2020)
Data provider http://aviationweather.gov/metar/data/
 
METAR text: UKLI 201230Z 31003MPS 280V010 9999 FEW021CB BKN033 05/01 Q1020 R10/290065 NOSIG
Conditions at: UKLI (IVANO-FRANKIVSK , UA) observed 1230 UTC 20 February 2020
Temperature: 5.0°C (41°F)
Dewpoint: 1.0°C (34°F) [RH = 75%]
Pressure (altimeter): 30.12 inches Hg (1020.0 mb)
Winds: from the NW (310 degrees) at 7 MPH (6 knots; 3.1 m/s)
Visibility: 6 or more miles (10+ km)
Ceiling: 3300 feet AGL
Clouds: few clouds at 2100 feet AGL
broken clouds at 3300 feet AGL
Weather: no significant weather observed at this time

METAR text: UKLI 201200Z 30004MPS 270V330 9999 SCT017CB BKN030 05/02 Q1020 R10/290065 NOSIG
Conditions at: UKLI (IVANO-FRANKIVSK , UA) observed 1200 UTC 20 February 2020
Temperature: 5.0°C (41°F)
Dewpoint: 2.0°C (36°F) [RH = 81%]
Pressure (altimeter): 30.12 inches Hg (1020.0 mb)
Winds: from the WNW (300 degrees) at 9 MPH (8 knots; 4.1 m/s)
Visibility: 6 or more miles (10+ km)
Ceiling: 3000 feet AGL
Clouds: scattered clouds at 1700 feet AGL
broken clouds at 3000 feet AGL
Weather: no significant weather observed at this time

Forecast for: UKLI (IVANO-FRANKIVSK , UA)
Text: TAF UKLI 201103Z 2012/2021 29005MPS 9999 BKN020 TX06/2012Z TN00/2021Z
Forecast period: 1200 to 2100 UTC 20 February 2020
Forecast type: FROM: standard forecast or significant change
Winds: from the WNW (290 degrees) at 12 MPH (10 knots; 5.1 m/s)
Visibility: 6 or more miles 10+ km)
Ceiling: 2000 feet AGL
Clouds: broken clouds at 2000 feet AGL
Weather: no significant weather forecast for this period
Text: TEMPO 2012/2018 3000 -SHRA BKN012CB
Forecast period: 1200 to 1800 UTC 20 February 2020
Forecast type: TEMPORARY: The following changes expected for less than half the time period
Visibility: 1.86 miles (2.99 km)
Ceiling: 1200 feet AGL
Clouds: broken clouds at 1200 feet AGL
Weather: -SHRA  (light rain showers)
Text: TEMPO 2018/2021 VRB01MPS 1800 BR BKN007
Forecast period: 1800 to 2100 UTC 20 February 2020
Forecast type: TEMPORARY: The following changes expected for less than half the time period
Winds: variable direction winds at 2 MPH (2 knots; 1.0 m/s)
Visibility: 1.12 miles (1.80 km)
Ceiling: 700 feet AGL
Clouds: broken clouds at 700 feet AGL
Weather: BR  (mist)

 AIRPORT MAP

 RUNWAY INFORMATION
Runway 10 Runway length 8226 ft Runway width 144 ft
Runway elevation 919 ft Runway displaced threshold 0 ft Runway heading 104
Runway 28 Runway length 8226 ft Runway width 144 ft
Runway elevation 904 ft Runway displaced threshold 0 ft Runway heading 284

 AIRPORT FREQUENCIES
Type APP Name FRANKO APP Frequency 127.3 MHZ
Type APP Name FRANKO STA Frequency 128.5 MHZ
Type PMSV Name FRANKO MET Frequency 126.4 MHZ
Type TWR Name FRANKO TWR Frequency 118.3 MHZ
Type TWR Name FRANKO STA Frequency 124 MHZ

 AIRPORT NEAR NAVIGATION AIDS
Type VOR-DME Name Ivano Frankivsk Frequency 114200 KHZ